Time;durP1;ratioP1;P1;durP2;ratioP2;P2;SDS_P1;SDS_P2;PMS_P1;PMS_P2;Temp;Humidity;BMP_temperature;BMP_pressure;BME280_temperature;BME280_humidity;BME280_pressure;Samples;Min_cycle;Max_cycle;Signal;HPM_P1;HPM_P2
2022/03/30 00:00:46;;;;;;;5.13;3.17;;;20.80;57.20;;;;;;5016029;28;20026;-67
2022/03/30 00:03:11;;;;;;;7.20;3.53;;;20.80;57.10;;;;;;5016166;28;20026;-67
2022/03/30 00:05:38;;;;;;;5.03;3.55;;;20.80;57.10;;;;;;5014796;28;20054;-67
2022/03/30 00:08:04;;;;;;;4.15;3.30;;;20.80;57.20;;;;;;5015163;28;20022;-67
2022/03/30 00:10:30;;;;;;;5.63;3.70;;;20.80;57.20;;;;;;5014974;28;20029;-67
2022/03/30 00:12:56;;;;;;;5.50;3.70;;;20.80;57.20;;;;;;5014858;28;20030;-68
2022/03/30 00:15:22;;;;;;;6.88;3.78;;;20.80;57.20;;;;;;5015885;28;20032;-68
2022/03/30 00:17:48;;;;;;;5.13;3.90;;;20.80;57.20;;;;;;5015987;28;20144;-68
2022/03/30 00:20:13;;;;;;;6.18;4.10;;;20.80;57.30;;;;;;5015954;28;20030;-68
2022/03/30 00:22:40;;;;;;;7.57;3.75;;;20.80;57.20;;;;;;5015742;28;20033;-68
2022/03/30 00:25:07;;;;;;;5.70;3.58;;;20.80;57.30;;;;;;5027656;28;20029;-68
2022/03/30 00:27:34;;;;;;;7.18;3.67;;;20.80;57.30;;;;;;5034188;28;20041;-68
2022/03/30 00:29:59;;;;;;;8.88;3.70;;;20.80;57.30;;;;;;5035233;28;20045;-68
2022/03/30 00:32:25;;;;;;;5.45;3.38;;;20.80;57.30;;;;;;5034367;28;20029;-68
2022/03/30 00:34:51;;;;;;;4.82;3.17;;;20.80;57.30;;;;;;5034219;28;20030;-68
2022/03/30 00:37:17;;;;;;;4.88;3.40;;;20.80;57.30;;;;;;5034418;28;20040;-68
2022/03/30 00:39:43;;;;;;;6.28;3.92;;;20.80;57.30;;;;;;5035163;28;20025;-68
2022/03/30 00:42:23;;;;;;;4.95;3.60;;;20.80;57.40;;;;;;5034174;28;20030;-68
2022/03/30 00:44:49;;;;;;;6.57;3.10;;;20.90;57.40;;;;;;5033685;28;20480;-68
2022/03/30 00:47:20;;;;;;;5.32;3.50;;;20.80;57.40;;;;;;5034247;28;20029;-68
2022/03/30 00:49:46;;;;;;;4.78;3.22;;;20.90;57.50;;;;;;5034441;28;20510;-68
2022/03/30 00:52:12;;;;;;;6.53;3.47;;;20.80;57.50;;;;;;5031278;28;20048;-67
2022/03/30 00:54:38;;;;;;;5.53;3.38;;;20.80;57.50;;;;;;5014192;28;20073;-68
2022/03/30 00:57:06;;;;;;;5.53;3.33;;;20.80;57.50;;;;;;5014097;28;20041;-68
2022/03/30 00:59:32;;;;;;;6.13;3.08;;;20.80;57.50;;;;;;5013773;28;20022;-68
2022/03/30 01:01:59;;;;;;;5.85;3.70;;;20.80;57.50;;;;;;5013985;28;20033;-68
2022/03/30 01:04:26;;;;;;;5.03;3.72;;;20.80;57.50;;;;;;5015029;28;20393;-67
2022/03/30 01:06:51;;;;;;;4.65;3.33;;;20.80;57.60;;;;;;5013958;28;20014;-67
2022/03/30 01:09:17;;;;;;;4.07;3.00;;;20.90;57.60;;;;;;5015143;28;20044;-67
2022/03/30 01:11:43;;;;;;;5.57;3.28;;;20.80;57.60;;;;;;5013780;28;20037;-67
2022/03/30 01:14:09;;;;;;;6.43;3.63;;;20.90;57.70;;;;;;5013599;28;20112;-67
2022/03/30 01:16:34;;;;;;;4.53;3.28;;;20.80;57.60;;;;;;5013803;28;20160;-67
2022/03/30 01:19:07;;;;;;;4.55;3.28;;;20.80;57.60;;;;;;5015084;28;20018;-67
2022/03/30 01:21:37;;;;;;;4.05;3.20;;;20.90;57.70;;;;;;5013523;28;20025;-68
2022/03/30 01:24:03;;;;;;;4.43;3.30;;;20.90;57.70;;;;;;5018038;28;20013;-67
2022/03/30 01:26:30;;;;;;;5.30;3.30;;;20.90;57.70;;;;;;5034654;28;20029;-67
2022/03/30 01:28:56;;;;;;;5.28;3.20;;;20.80;57.70;;;;;;5034259;28;20109;-67
2022/03/30 01:34:05;;;;;;;4.30;3.08;;;20.90;57.80;;;;;;5033385;28;20029;-67
2022/03/30 01:36:31;;;;;;;5.68;3.53;;;20.80;57.70;;;;;;5033203;28;20025;-68
2022/03/30 01:38:57;;;;;;;5.18;3.40;;;20.90;57.80;;;;;;5033134;28;20674;-68
2022/03/30 01:41:23;;;;;;;6.38;3.53;;;20.90;57.80;;;;;;5034320;28;20029;-68
2022/03/30 01:43:48;;;;;;;5.82;3.60;;;20.80;57.80;;;;;;5033835;28;20050;-68
2022/03/30 01:46:14;;;;;;;6.10;3.72;;;20.90;57.80;;;;;;5032823;28;20020;-68
2022/03/30 01:48:40;;;;;;;6.10;3.75;;;20.90;57.90;;;;;;5034158;28;20052;-68
2022/03/30 01:51:06;;;;;;;5.25;3.80;;;20.80;57.80;;;;;;5034120;28;20041;-68
2022/03/30 01:53:31;;;;;;;5.53;3.90;;;20.80;57.80;;;;;;5020602;28;20061;-68
2022/03/30 01:55:57;;;;;;;5.82;3.75;;;20.80;57.80;;;;;;5014091;28;20079;-68
2022/03/30 01:58:23;;;;;;;5.35;3.58;;;20.90;57.90;;;;;;5014019;28;20033;-68
2022/03/30 02:00:49;;;;;;;4.88;3.38;;;20.80;57.80;;;;;;5012982;28;20411;-68
2022/03/30 02:03:14;;;;;;;6.28;3.75;;;20.80;57.80;;;;;;5014223;28;20040;-68
2022/03/30 02:05:40;;;;;;;7.63;3.55;;;20.80;57.90;;;;;;5013838;28;20105;-68
2022/03/30 02:08:06;;;;;;;5.00;3.55;;;20.80;57.80;;;;;;5012723;28;20084;-67
2022/03/30 02:10:32;;;;;;;6.80;4.18;;;20.80;57.90;;;;;;5014002;28;20059;-67
2022/03/30 02:12:58;;;;;;;5.80;3.92;;;20.80;58.00;;;;;;5013678;28;20496;-67
2022/03/30 02:15:24;;;;;;;6.78;3.88;;;20.80;57.90;;;;;;5012611;28;20047;-67
2022/03/30 02:17:50;;;;;;;6.30;3.97;;;20.80;57.90;;;;;;5013993;28;20030;-67
2022/03/30 02:20:16;;;;;;;5.18;3.75;;;20.80;58.00;;;;;;5013572;28;20026;-67
2022/03/30 02:22:41;;;;;;;6.32;3.97;;;20.80;57.90;;;;;;5013482;28;20034;-68
2022/03/30 02:25:08;;;;;;;5.68;3.40;;;20.80;58.00;;;;;;5026821;28;20025;-67
2022/03/30 02:27:34;;;;;;;4.30;3.80;;;20.80;58.00;;;;;;5031956;28;20017;-67
2022/03/30 02:30:00;;;;;;;6.13;4.07;;;20.80;58.00;;;;;;5033291;28;20095;-67
2022/03/30 02:32:25;;;;;;;6.97;3.85;;;20.80;58.10;;;;;;5033123;28;20135;-67
2022/03/30 02:34:51;;;;;;;5.50;3.67;;;20.80;58.00;;;;;;5032014;28;20025;-67
2022/03/30 02:37:17;;;;;;;8.27;4.22;;;20.80;58.10;;;;;;5033198;28;20087;-67
2022/03/30 02:39:42;;;;;;;5.95;3.85;;;20.80;58.00;;;;;;5031740;28;20430;-67
2022/03/30 02:42:08;;;;;;;5.88;3.90;;;20.80;58.10;;;;;;5032664;28;20040;-67
2022/03/30 02:44:34;;;;;;;4.75;3.75;;;20.80;58.00;;;;;;5032022;28;20026;-67
2022/03/30 02:47:03;;;;;;;6.00;3.65;;;20.80;58.10;;;;;;5031641;28;20105;-67
2022/03/30 02:49:28;;;;;;;6.88;3.97;;;20.80;58.10;;;;;;5033011;28;20053;-67
2022/03/30 02:51:54;;;;;;;8.35;4.63;;;20.80;58.10;;;;;;5032738;28;20068;-67
2022/03/30 02:54:20;;;;;;;6.63;3.70;;;20.80;58.10;;;;;;5011940;28;20029;-67
2022/03/30 02:56:46;;;;;;;4.82;3.83;;;20.80;58.10;;;;;;5011808;28;20022;-67
2022/03/30 02:59:11;;;;;;;5.43;3.72;;;20.80;58.10;;;;;;5011891;28;20401;-67
2022/03/30 03:01:37;;;;;;;6.72;3.88;;;20.80;58.10;;;;;;5011696;28;20041;-67
2022/03/30 03:04:03;;;;;;;8.50;4.25;;;20.80;58.10;;;;;;5012847;28;20096;-67
2022/03/30 03:06:29;;;;;;;5.88;4.03;;;20.80;58.10;;;;;;5011868;28;20489;-67
2022/03/30 03:08:57;;;;;;;6.88;4.18;;;20.80;58.20;;;;;;5012644;28;20026;-67
2022/03/30 03:11:23;;;;;;;6.70;4.20;;;20.80;58.10;;;;;;5012589;28;20468;-67
2022/03/30 03:13:48;;;;;;;5.43;4.00;;;20.80;58.20;;;;;;5012914;28;20030;-67
2022/03/30 03:16:14;;;;;;;6.22;3.58;;;20.80;58.20;;;;;;5012841;28;20607;-67
2022/03/30 03:18:40;;;;;;;4.60;4.07;;;20.80;58.20;;;;;;5012973;28;20499;-67
2022/03/30 03:21:05;;;;;;;5.05;3.70;;;20.80;58.20;;;;;;5012576;28;20029;-67
2022/03/30 03:23:31;;;;;;;5.32;3.90;;;20.80;58.20;;;;;;5012397;28;20030;-67
2022/03/30 03:25:56;;;;;;;5.22;3.67;;;20.80;58.20;;;;;;5032336;28;20033;-67
2022/03/30 03:28:22;;;;;;;5.20;3.55;;;20.80;58.20;;;;;;5032315;28;20049;-67
2022/03/30 03:30:48;;;;;;;6.13;4.20;;;20.80;58.20;;;;;;5032222;28;20018;-67
2022/03/30 03:33:15;;;;;;;6.45;4.07;;;20.80;58.20;;;;;;5032583;28;20045;-68
2022/03/30 03:35:41;;;;;;;6.20;4.00;;;20.80;58.20;;;;;;5030982;28;20451;-68
2022/03/30 03:38:08;;;;;;;4.65;3.78;;;20.80;58.20;;;;;;5030891;28;20474;-68
2022/03/30 03:40:33;;;;;;;4.03;3.63;;;20.80;58.20;;;;;;5031049;28;20044;-68
2022/03/30 03:42:59;;;;;;;6.30;3.60;;;20.80;58.30;;;;;;5030708;28;20057;-67
2022/03/30 03:45:25;;;;;;;6.72;3.78;;;20.70;58.20;;;;;;5031038;28;20377;-68
2022/03/30 03:47:51;;;;;;;5.97;3.60;;;20.80;58.20;;;;;;5032153;28;20044;-68
2022/03/30 03:50:17;;;;;;;5.22;3.95;;;20.80;58.30;;;;;;5030957;28;20472;-68
2022/03/30 03:52:43;;;;;;;5.60;3.75;;;20.80;58.30;;;;;;5025059;28;20025;-68
2022/03/30 03:55:09;;;;;;;6.50;3.80;;;20.80;58.30;;;;;;5012371;28;20026;-68
2022/03/30 03:57:37;;;;;;;7.60;3.65;;;20.80;58.30;;;;;;5012407;28;20021;-68
2022/03/30 04:00:04;;;;;;;5.80;3.72;;;20.80;58.30;;;;;;5011178;28;20030;-68
2022/03/30 04:02:29;;;;;;;5.68;3.83;;;20.80;58.30;;;;;;5010894;28;20079;-68
2022/03/30 04:04:55;;;;;;;5.75;3.90;;;20.80;58.40;;;;;;5012342;28;20026;-67
2022/03/30 04:07:21;;;;;;;5.80;4.00;;;20.80;58.30;;;;;;5012224;28;20061;-67
2022/03/30 04:09:46;;;;;;;5.68;3.92;;;20.80;58.40;;;;;;5012259;28;20026;-67
2022/03/30 04:12:12;;;;;;;7.50;3.67;;;20.80;58.40;;;;;;5012202;28;20026;-67
2022/03/30 04:14:37;;;;;;;5.90;3.80;;;20.80;58.40;;;;;;5012469;28;20037;-68
2022/03/30 04:17:03;;;;;;;4.93;3.83;;;20.80;58.40;;;;;;5012087;28;20030;-68
2022/03/30 04:19:30;;;;;;;7.82;3.42;;;20.80;58.40;;;;;;5012303;28;20492;-68
2022/03/30 04:21:55;;;;;;;5.63;3.60;;;20.80;58.40;;;;;;5011920;28;20022;-68
2022/03/30 04:24:21;;;;;;;5.20;3.30;;;20.80;58.50;;;;;;5020539;28;20383;-68
2022/03/30 04:26:46;;;;;;;7.80;3.20;;;20.80;58.50;;;;;;5035640;28;20021;-68
2022/03/30 04:29:12;;;;;;;4.25;3.25;;;20.70;58.40;;;;;;5034383;28;20029;-67
2022/03/30 04:31:38;;;;;;;7.18;3.40;;;20.70;58.40;;;;;;5035519;28;20101;-67
2022/03/30 04:34:03;;;;;;;4.47;3.60;;;20.80;58.50;;;;;;5035566;28;20116;-68
2022/03/30 04:36:29;;;;;;;5.53;3.63;;;20.80;58.50;;;;;;5035222;28;20029;-68
2022/03/30 04:38:54;;;;;;;5.53;3.67;;;20.80;58.50;;;;;;5034164;28;20080;-67
2022/03/30 04:41:20;;;;;;;5.43;3.50;;;20.80;58.50;;;;;;5035379;28;20028;-68
2022/03/30 04:43:46;;;;;;;3.50;3.03;;;20.70;58.50;;;;;;5035241;28;20049;-67
2022/03/30 04:46:13;;;;;;;6.10;3.10;;;20.80;58.60;;;;;;5034101;28;20029;-68
2022/03/30 04:48:38;;;;;;;6.35;3.70;;;20.80;58.50;;;;;;5034014;28;20036;-67
2022/03/30 04:51:04;;;;;;;5.57;3.58;;;20.70;58.50;;;;;;5033742;28;20029;-67
2022/03/30 04:53:30;;;;;;;4.68;3.20;;;20.80;58.60;;;;;;5020670;28;20058;-68
2022/03/30 04:55:55;;;;;;;5.18;3.25;;;20.70;58.50;;;;;;5014207;28;20117;-68
2022/03/30 04:58:21;;;;;;;4.15;3.22;;;20.80;58.60;;;;;;5015272;28;20404;-68
2022/03/30 05:00:47;;;;;;;4.95;3.47;;;20.80;58.60;;;;;;5015347;28;20030;-68
2022/03/30 05:03:12;;;;;;;5.15;3.30;;;20.70;58.50;;;;;;5015022;28;20037;-68
2022/03/30 05:05:38;;;;;;;5.25;3.38;;;20.70;58.60;;;;;;5014901;28;20034;-68
2022/03/30 05:08:04;;;;;;;4.57;3.50;;;20.70;58.60;;;;;;5013966;28;20030;-68
2022/03/30 05:10:30;;;;;;;4.88;3.47;;;20.70;58.60;;;;;;5013971;28;20033;-68
2022/03/30 05:12:55;;;;;;;5.63;3.88;;;20.70;58.50;;;;;;5014807;28;20018;-68
2022/03/30 05:15:23;;;;;;;5.10;3.30;;;20.70;58.50;;;;;;5019038;28;20022;-68
2022/03/30 05:17:49;;;;;;;6.13;3.25;;;20.70;58.50;;;;;;5032706;28;20038;-68
2022/03/30 05:20:15;;;;;;;3.67;2.88;;;20.70;58.60;;;;;;5032595;28;20026;-68
2022/03/30 05:22:41;;;;;;;5.55;3.63;;;20.70;58.60;;;;;;5032577;28;20013;-68
2022/03/30 05:25:07;;;;;;;5.00;3.33;;;20.70;58.60;;;;;;5032280;28;20569;-68
2022/03/30 05:27:33;;;;;;;4.68;3.40;;;20.70;58.60;;;;;;5064423;28;20061;-68
2022/03/30 05:29:58;;;;;;;4.53;3.30;;;20.70;58.60;;;;;;5031183;28;20052;-68
2022/03/30 05:32:24;;;;;;;5.35;3.75;;;20.70;58.70;;;;;;5033907;28;20104;-68
2022/03/30 05:34:50;;;;;;;4.32;3.00;;;20.70;58.60;;;;;;5034628;28;20053;-68
2022/03/30 05:37:16;;;;;;;5.68;3.35;;;20.80;58.70;;;;;;5033551;28;20037;-68
2022/03/30 05:39:42;;;;;;;10.48;6.78;;;20.80;58.80;;;;;;5033858;28;20025;-68
2022/03/30 05:42:14;;;;;;;16.33;8.75;;;20.70;58.00;;;;;;5033491;28;20027;-68
2022/03/30 05:44:40;;;;;;;12.40;8.35;;;20.60;57.40;;;;;;5030648;28;20089;-68
2022/03/30 05:47:09;;;;;;;11.52;7.82;;;20.50;57.40;;;;;;5016502;28;20021;-68
2022/03/30 05:49:38;;;;;;;14.75;7.93;;;20.50;57.40;;;;;;5033973;28;20036;-68
2022/03/30 05:52:04;;;;;;;10.32;7.15;;;20.40;57.40;;;;;;5032673;28;20071;-68
2022/03/30 05:54:29;;;;;;;11.50;7.07;;;20.40;57.50;;;;;;5032870;28;20041;-69
2022/03/30 05:57:01;;;;;;;11.75;7.53;;;20.30;57.40;;;;;;5031954;28;20017;-69
2022/03/30 05:59:37;;;;;;;13.30;8.23;;;20.30;57.30;;;;;;5032956;28;20065;-69
2022/03/30 06:02:04;;;;;;;12.35;7.75;;;20.30;57.30;;;;;;5028877;28;20027;-69
2022/03/30 06:04:29;;;;;;;11.20;7.10;;;20.20;57.20;;;;;;5033246;28;20056;-69
2022/03/30 06:06:55;;;;;;;12.07;7.95;;;20.20;57.20;;;;;;5032318;28;20060;-69
2022/03/30 06:09:21;;;;;;;12.55;8.32;;;20.20;57.20;;;;;;5033837;28;20091;-69
2022/03/30 06:11:47;;;;;;;10.88;7.53;;;20.20;57.20;;;;;;5032703;28;20029;-69
2022/03/30 06:14:14;;;;;;;11.75;7.90;;;20.10;57.10;;;;;;5032291;28;20022;-69
2022/03/30 06:16:40;;;;;;;13.35;7.60;;;20.10;57.20;;;;;;5032609;28;20025;-69
2022/03/30 06:19:06;;;;;;;13.48;8.45;;;20.10;57.10;;;;;;5031719;28;20057;-69
2022/03/30 06:21:32;;;;;;;12.20;7.63;;;20.10;57.10;;;;;;5015682;28;20542;-69
2022/03/30 06:24:01;;;;;;;14.32;7.93;;;20.10;57.00;;;;;;5032244;28;20044;-69
2022/03/30 06:26:27;;;;;;;20.20;8.48;;;20.10;57.00;;;;;;5032119;28;20021;-69
2022/03/30 06:28:52;;;;;;;20.55;8.30;;;20.10;57.10;;;;;;5031291;28;20025;-69
2022/03/30 06:31:18;;;;;;;20.08;8.85;;;20.10;57.20;;;;;;5032303;28;20033;-69
2022/03/30 06:33:45;;;;;;;16.02;8.65;;;20.10;57.20;;;;;;5033080;28;20500;-68
2022/03/30 06:36:11;;;;;;;15.20;8.68;;;20.00;57.10;;;;;;5031940;28;20434;-68
2022/03/30 06:38:37;;;;;;;14.27;7.93;;;20.00;57.20;;;;;;5033356;28;20026;-68
2022/03/30 06:41:03;;;;;;;15.48;8.73;;;20.00;57.20;;;;;;5032828;28;20507;-68
2022/03/30 06:43:29;;;;;;;17.30;8.73;;;20.00;57.20;;;;;;5032937;28;20045;-69
2022/03/30 06:45:55;;;;;;;17.38;9.27;;;20.00;57.20;;;;;;5032840;28;20432;-68
2022/03/30 06:48:21;;;;;;;17.63;9.88;;;20.00;57.30;;;;;;5032393;28;20021;-68
2022/03/30 06:50:46;;;;;;;16.88;8.98;;;20.00;57.30;;;;;;5031843;28;20029;-68
2022/03/30 06:53:12;;;;;;;15.50;8.73;;;20.00;57.30;;;;;;5021093;28;20026;-68
2022/03/30 06:55:38;;;;;;;17.77;9.00;;;20.00;57.30;;;;;;5013121;28;20022;-68
2022/03/30 06:58:05;;;;;;;17.92;9.30;;;20.00;57.30;;;;;;5012066;28;20526;-68
2022/03/30 07:00:31;;;;;;;15.98;9.05;;;20.00;57.40;;;;;;5012004;28;20065;-69
2022/03/30 07:02:56;;;;;;;18.13;8.75;;;19.90;57.30;;;;;;5012698;28;20053;-69
2022/03/30 07:05:22;;;;;;;14.27;8.55;;;20.00;57.30;;;;;;5011782;28;20037;-68
2022/03/30 07:10:33;;;;;;;15.93;9.05;;;19.90;57.30;;;;;;5013100;28;20084;-68
2022/03/30 07:13:00;;;;;;;13.68;8.02;;;19.90;57.20;;;;;;5012865;28;20037;-69
2022/03/30 07:15:26;;;;;;;17.92;9.20;;;19.90;57.30;;;;;;5011175;28;20018;-69
2022/03/30 07:17:53;;;;;;;18.48;8.50;;;19.90;57.20;;;;;;5011789;28;20053;-68
2022/03/30 07:20:21;;;;;;;15.95;8.82;;;19.90;57.30;;;;;;5012743;28;20397;-69
2022/03/30 07:22:47;;;;;;;19.70;9.38;;;19.90;57.20;;;;;;5012892;28;20025;-69
2022/03/30 07:25:13;;;;;;;17.02;9.07;;;19.90;57.20;;;;;;5025274;28;20025;-69
2022/03/30 07:27:40;;;;;;;15.55;8.77;;;19.90;57.20;;;;;;5032374;28;20032;-68
2022/03/30 07:30:07;;;;;;;16.65;8.77;;;19.90;57.20;;;;;;5031059;28;20026;-69
2022/03/30 07:32:34;;;;;;;15.30;8.32;;;19.90;57.20;;;;;;5031474;28;20021;-68
2022/03/30 07:35:01;;;;;;;18.05;9.35;;;19.90;57.20;;;;;;5032400;28;20014;-69
2022/03/30 07:37:26;;;;;;;18.23;9.38;;;19.80;57.10;;;;;;5031082;28;21346;-69
2022/03/30 07:39:52;;;;;;;15.60;8.68;;;19.90;57.20;;;;;;5031167;28;20032;-69
2022/03/30 07:42:17;;;;;;;17.33;9.20;;;19.90;57.20;;;;;;5031948;28;20036;-69
2022/03/30 07:44:43;;;;;;;20.23;8.35;;;19.80;57.10;;;;;;5032039;28;20033;-69
2022/03/30 07:47:09;;;;;;;17.58;8.85;;;19.80;57.20;;;;;;5032290;28;20057;-69
2022/03/30 07:49:34;;;;;;;17.17;9.38;;;19.80;57.20;;;;;;5032223;28;20498;-69
2022/03/30 07:52:03;;;;;;;15.05;8.75;;;19.80;57.10;;;;;;5029205;28;20026;-69
2022/03/30 07:54:29;;;;;;;17.58;9.05;;;19.80;57.10;;;;;;5012618;28;20040;-69
2022/03/30 07:56:55;;;;;;;20.02;9.38;;;19.80;57.10;;;;;;5011253;28;20532;-69
2022/03/30 07:59:20;;;;;;;16.70;9.18;;;19.80;57.10;;;;;;5012815;28;20109;-69
2022/03/30 08:01:46;;;;;;;18.08;9.50;;;19.80;57.10;;;;;;5016225;28;20057;-69
2022/03/30 08:04:12;;;;;;;16.83;9.05;;;19.80;57.10;;;;;;5016420;28;20030;-69
2022/03/30 08:06:38;;;;;;;17.45;9.48;;;19.80;57.10;;;;;;5015143;28;20113;-69
2022/03/30 08:09:04;;;;;;;15.63;8.90;;;19.80;57.10;;;;;;5015126;28;20018;-69
2022/03/30 08:11:30;;;;;;;17.42;9.45;;;19.80;57.20;;;;;;5015955;28;20584;-69
2022/03/30 08:13:56;;;;;;;17.35;9.15;;;19.80;57.10;;;;;;5014755;28;20499;-69
2022/03/30 08:16:22;;;;;;;16.38;9.73;;;19.80;57.10;;;;;;5015030;28;20057;-69
2022/03/30 08:18:48;;;;;;;17.48;9.10;;;19.80;57.00;;;;;;5014925;28;20048;-69
2022/03/30 08:23:57;;;;;;;14.82;8.55;;;19.80;57.00;;;;;;5019752;28;20044;-69
2022/03/30 08:26:23;;;;;;;13.88;8.88;;;19.80;57.10;;;;;;5035441;28;20037;-69
2022/03/30 08:28:49;;;;;;;13.93;8.85;;;19.80;57.00;;;;;;5035435;28;20028;-68
2022/03/30 08:31:14;;;;;;;15.90;8.88;;;19.80;57.00;;;;;;5035663;28;20032;-69
2022/03/30 08:33:40;;;;;;;13.98;8.45;;;19.80;57.00;;;;;;5034383;28;20022;-69
2022/03/30 08:36:07;;;;;;;17.90;9.95;;;19.80;57.00;;;;;;5034344;28;20029;-69
2022/03/30 08:38:33;;;;;;;20.60;9.30;;;19.80;57.00;;;;;;5035356;28;20025;-69
2022/03/30 08:40:59;;;;;;;17.42;8.75;;;19.80;57.00;;;;;;5035397;28;20071;-69
2022/03/30 08:43:29;;;;;;;17.60;8.80;;;19.80;57.00;;;;;;5033810;28;20124;-69
2022/03/30 08:45:56;;;;;;;19.08;8.88;;;19.80;56.90;;;;;;5034167;28;20384;-68
2022/03/30 08:48:22;;;;;;;15.45;8.25;;;19.70;56.90;;;;;;5034285;28;20024;-69
2022/03/30 08:50:49;;;;;;;16.63;9.77;;;19.70;56.90;;;;;;5034114;28;20375;-69
2022/03/30 08:53:14;;;;;;;18.33;8.80;;;19.70;56.90;;;;;;5023337;28;20093;-69
2022/03/30 08:55:40;;;;;;;13.57;8.57;;;19.70;56.90;;;;;;5014127;28;20377;-69
2022/03/30 08:58:06;;;;;;;17.27;9.05;;;19.70;56.80;;;;;;5014107;28;20108;-69
2022/03/30 09:00:34;;;;;;;13.73;8.30;;;19.70;56.90;;;;;;5014036;28;20037;-69
2022/03/30 09:03:03;;;;;;;14.98;9.05;;;19.70;56.90;;;;;;5015132;28;20040;-69
2022/03/30 09:05:38;;;;;;;14.95;8.27;;;19.70;56.80;;;;;;5015033;28;20105;-69
2022/03/30 09:08:13;;;;;;;14.18;8.75;;;19.80;56.80;;;;;;5015325;28;20056;-69
2022/03/30 09:10:40;;;;;;;13.23;8.90;;;19.70;56.80;;;;;;5013337;28;20029;-69
2022/03/30 09:13:07;;;;;;;14.32;8.95;;;19.70;56.80;;;;;;5013657;28;20026;-69
2022/03/30 09:15:32;;;;;;;16.67;9.48;;;19.70;56.80;;;;;;5013901;28;20033;-69
2022/03/30 09:18:03;;;;;;;14.48;8.60;;;19.70;56.80;;;;;;5013906;28;20026;-69
2022/03/30 09:20:28;;;;;;;14.50;8.50;;;19.70;56.80;;;;;;5013677;28;20034;-68
2022/03/30 09:22:56;;;;;;;16.00;9.10;;;19.70;56.80;;;;;;5013674;28;20121;-69
2022/03/30 09:25:26;;;;;;;14.90;8.55;;;19.70;56.80;;;;;;5028632;28;20499;-69
2022/03/30 09:27:53;;;;;;;13.88;8.63;;;19.70;56.70;;;;;;5033294;28;20083;-69
2022/03/30 09:30:19;;;;;;;16.02;8.77;;;19.70;56.80;;;;;;5033214;28;20021;-69
2022/03/30 09:32:45;;;;;;;13.65;8.25;;;19.70;56.70;;;;;;5033261;28;20053;-69
2022/03/30 09:35:19;;;;;;;12.55;7.85;;;19.70;56.70;;;;;;5033033;28;20024;-69
2022/03/30 09:37:46;;;;;;;13.73;8.40;;;19.70;56.70;;;;;;5034314;28;20072;-69
2022/03/30 09:40:12;;;;;;;13.50;8.75;;;19.70;56.70;;;;;;5033139;28;20013;-69
2022/03/30 09:42:38;;;;;;;16.58;8.98;;;19.70;56.70;;;;;;5032835;28;20500;-69
2022/03/30 09:45:04;;;;;;;14.50;8.23;;;19.70;56.70;;;;;;5034220;28;20032;-69
2022/03/30 09:47:38;;;;;;;14.60;8.40;;;19.70;56.70;;;;;;5034087;28;20029;-69
2022/03/30 09:50:06;;;;;;;13.77;7.80;;;19.70;56.60;;;;;;5032959;28;20040;-69
2022/03/30 09:52:33;;;;;;;15.23;8.52;;;19.60;56.60;;;;;;5026673;28;20133;-69
2022/03/30 09:55:03;;;;;;;14.63;8.43;;;19.70;56.70;;;;;;5012864;28;20025;-69
2022/03/30 09:57:38;;;;;;;16.65;9.40;;;19.70;56.70;;;;;;5012678;28;20026;-69
2022/03/30 10:00:07;;;;;;;14.55;8.68;;;19.70;56.50;;;;;;5013093;28;20022;-69
2022/03/30 10:02:51;;;;;;;13.18;7.95;;;19.60;56.60;;;;;;5014005;28;20048;-69
2022/03/30 10:05:19;;;;;;;13.68;8.43;;;19.70;56.40;;;;;;5012854;28;20025;-69
2022/03/30 10:07:47;;;;;;;16.63;9.40;;;19.60;56.60;;;;;;5012619;28;20022;-69
2022/03/30 10:10:16;;;;;;;15.00;8.80;;;19.60;56.60;;;;;;5012635;28;20026;-69
2022/03/30 10:12:42;;;;;;;14.63;8.88;;;19.60;56.60;;;;;;5012783;28;20025;-69
2022/03/30 10:15:08;;;;;;;14.23;8.45;;;19.60;56.50;;;;;;5012601;28;20025;-68
2022/03/30 10:17:34;;;;;;;12.73;7.97;;;19.60;56.60;;;;;;5012487;28;20041;-69
2022/03/30 10:20:01;;;;;;;12.98;8.95;;;19.60;56.50;;;;;;5012655;28;20030;-69
2022/03/30 10:22:27;;;;;;;12.90;7.88;;;19.60;56.50;;;;;;5011574;28;20029;-69
2022/03/30 10:25:21;;;;;;;14.80;7.78;;;19.60;56.50;;;;;;5024546;28;20025;-69
2022/03/30 10:27:46;;;;;;;11.27;7.53;;;19.60;56.40;;;;;;5033348;28;20033;-69
2022/03/30 10:30:12;;;;;;;11.60;7.63;;;19.60;56.50;;;;;;5033274;28;20026;-69
2022/03/30 10:32:38;;;;;;;14.35;8.30;;;19.60;56.50;;;;;;5032082;28;20528;-69
2022/03/30 10:35:08;;;;;;;15.57;8.82;;;19.60;56.50;;;;;;5032068;28;20025;-69
2022/03/30 10:37:36;;;;;;;12.90;7.75;;;19.60;56.50;;;;;;5032043;28;20033;-69
2022/03/30 10:40:05;;;;;;;13.15;7.78;;;19.60;56.50;;;;;;5031992;28;20021;-69
2022/03/30 10:42:46;;;;;;;12.68;8.02;;;19.60;56.40;;;;;;5032759;28;20076;-68
2022/03/30 10:45:33;;;;;;;15.27;8.73;;;19.60;56.30;;;;;;5033121;28;20033;-69
2022/03/30 10:48:44;;;;;;;13.90;8.88;;;19.60;56.30;;;;;;5033076;28;20053;-69
2022/03/30 10:51:15;;;;;;;12.38;8.57;;;19.60;56.40;;;;;;5030796;28;20026;-69
2022/03/30 10:53:49;;;;;;;13.93;8.27;;;19.60;56.50;;;;;;5014960;28;20045;-69
2022/03/30 10:56:15;;;;;;;14.35;8.50;;;19.60;56.50;;;;;;5011072;28;20068;-69
2022/03/30 10:58:49;;;;;;;13.15;7.85;;;19.60;56.40;;;;;;5010987;28;20034;-69
2022/03/30 11:01:29;;;;;;;14.38;8.77;;;19.60;56.30;;;;;;5011126;28;20037;-68
2022/03/30 11:04:02;;;;;;;12.90;8.02;;;19.60;56.30;;;;;;4994727;28;20033;-68
2022/03/30 11:06:30;;;;;;;11.93;7.80;;;19.60;56.50;;;;;;5010667;28;20048;-69
2022/03/30 11:08:55;;;;;;;13.82;8.63;;;19.60;56.40;;;;;;4994295;28;20444;-69
2022/03/30 11:11:35;;;;;;;13.32;8.63;;;19.60;56.40;;;;;;5011023;28;20037;-68
2022/03/30 11:14:31;;;;;;;14.63;8.95;;;19.60;56.30;;;;;;5010998;28;20029;-69
2022/03/30 11:17:01;;;;;;;12.27;8.50;;;19.60;56.10;;;;;;5010887;28;20033;-69
2022/03/30 11:19:30;;;;;;;14.07;8.60;;;19.60;56.40;;;;;;4994187;28;20034;-69
2022/03/30 11:22:12;;;;;;;14.07;8.88;;;19.60;56.40;;;;;;5010505;28;20030;-69
2022/03/30 11:25:06;;;;;;;13.65;8.73;;;19.60;56.10;;;;;;4998133;28;20033;-68
2022/03/30 11:27:31;;;;;;;14.13;9.07;;;19.60;56.30;;;;;;5011601;28;20036;-69
2022/03/30 11:29:59;;;;;;;15.13;8.90;;;19.60;56.40;;;;;;5012821;28;20388;-69
2022/03/30 11:32:32;;;;;;;13.68;9.38;;;19.60;56.40;;;;;;5011092;28;20026;-69
2022/03/30 11:35:03;;;;;;;15.77;9.50;;;19.60;56.30;;;;;;5012719;28;20599;-69
2022/03/30 11:37:34;;;;;;;11.57;8.02;;;19.60;56.30;;;;;;5012417;28;20026;-69
2022/03/30 11:40:04;;;;;;;15.77;9.50;;;19.60;56.30;;;;;;5011549;28;20126;-68
2022/03/30 11:42:30;;;;;;;13.98;9.32;;;19.60;56.20;;;;;;5011318;28;20082;-68
2022/03/30 11:45:13;;;;;;;15.55;9.30;;;19.60;56.30;;;;;;5012762;28;20127;-69
2022/03/30 11:48:07;;;;;;;14.35;8.40;;;19.60;56.20;;;;;;5012611;28;20026;-69
2022/03/30 11:50:38;;;;;;;12.20;8.52;;;19.60;56.10;;;;;;5044227;28;20500;-69
2022/03/30 11:53:14;;;;;;;14.30;8.88;;;19.60;56.20;;;;;;5022408;28;20549;-68
2022/03/30 11:55:59;;;;;;;13.55;8.85;;;19.60;56.30;;;;;;5031212;28;20032;-69
2022/03/30 11:58:34;;;;;;;13.95;8.77;;;19.60;56.00;;;;;;5014949;28;21173;-69
2022/03/30 12:01:03;;;;;;;14.55;8.90;;;19.60;56.20;;;;;;5030978;28;20030;-69
2022/03/30 12:03:28;;;;;;;13.20;8.15;;;19.60;56.30;;;;;;5014936;28;20412;-69
2022/03/30 12:05:55;;;;;;;11.73;7.68;;;19.60;56.20;;;;;;5014306;28;20014;-69
2022/03/30 12:08:21;;;;;;;13.30;8.50;;;19.60;56.20;;;;;;5030768;28;20041;-68
2022/03/30 12:10:48;;;;;;;15.48;9.55;;;19.60;56.20;;;;;;5014376;28;20502;-69
2022/03/30 12:13:21;;;;;;;13.18;8.25;;;19.60;56.20;;;;;;5032191;28;20024;-69
2022/03/30 12:15:46;;;;;;;;;;;19.60;56.10;;;;;;5031139;28;20026;-69
2022/03/30 12:18:12;;;;;;;12.25;8.25;;;19.60;56.00;;;;;;5031883;28;19912;-68
2022/03/30 12:20:37;;;;;;;13.95;8.80;;;19.50;56.30;;;;;;5030643;28;20025;-69
2022/03/30 12:23:04;;;;;;;13.25;8.32;;;19.50;56.30;;;;;;5031781;28;20399;-69
2022/03/30 12:25:34;;;;;;;12.05;8.10;;;19.50;56.20;;;;;;5030508;28;20041;-69
2022/03/30 12:28:00;;;;;;;11.10;8.57;;;19.50;56.20;;;;;;5030869;28;20041;-69
2022/03/30 12:30:26;;;;;;;12.05;8.30;;;19.60;56.10;;;;;;5030699;28;20530;-69
2022/03/30 12:32:51;;;;;;;12.23;8.27;;;19.60;56.10;;;;;;5030502;28;20017;-69
2022/03/30 12:35:17;;;;;;;13.45;8.55;;;19.60;56.20;;;;;;5030564;28;20035;-69
2022/03/30 12:37:45;;;;;;;11.10;8.20;;;19.60;56.10;;;;;;5030611;28;20033;-69
2022/03/30 12:40:21;;;;;;;13.95;8.20;;;19.60;56.10;;;;;;5030758;28;20017;-69
2022/03/30 12:42:47;;;;;;;13.35;8.50;;;19.60;56.00;;;;;;5031288;28;20046;-68
2022/03/30 12:45:15;;;;;;;14.80;8.50;;;19.60;56.10;;;;;;5032059;28;20038;-69
2022/03/30 12:47:51;;;;;;;12.38;7.88;;;19.60;56.10;;;;;;5035155;28;20104;-69
2022/03/30 12:50:24;;;;;;;12.48;8.18;;;19.60;56.00;;;;;;5035062;28;20018;-69